createdAt,value
2019-04-10T00:00:23.875Z,0.00
2019-04-10T00:01:23.867Z,0.00
2019-04-10T00:02:23.876Z,0.00
2019-04-10T00:03:32.320Z,0.00
2019-04-10T00:04:23.844Z,0.00
2019-04-10T00:05:23.834Z,0.00
2019-04-10T00:06:23.822Z,0.00
2019-04-10T00:07:23.816Z,0.00
2019-04-10T00:08:23.812Z,0.00
2019-04-10T00:09:23.803Z,0.00
2019-04-10T00:10:23.796Z,0.00
2019-04-10T00:11:24.837Z,0.00
2019-04-10T00:12:23.777Z,0.00
2019-04-10T00:13:24.698Z,0.00
2019-04-10T00:14:24.050Z,0.00
2019-04-10T00:15:24.328Z,0.00
2019-04-10T00:16:24.493Z,0.00
2019-04-10T00:17:23.737Z,0.00
2019-04-10T00:18:24.162Z,0.00
2019-04-10T00:19:23.723Z,0.00
2019-04-10T00:20:24.588Z,0.00
2019-04-10T00:21:23.701Z,0.00
2019-04-10T00:22:24.326Z,0.00
2019-04-10T00:23:24.758Z,0.00
2019-04-10T00:24:23.982Z,0.00
2019-04-10T00:25:24.438Z,0.00
2019-04-10T00:26:23.802Z,0.00
2019-04-10T00:27:23.651Z,0.00
2019-04-10T00:28:23.647Z,0.00
2019-04-10T00:29:24.545Z,0.00
2019-04-10T00:30:23.630Z,0.00
2019-04-10T00:31:24.329Z,0.00
2019-04-10T00:32:23.805Z,0.00
2019-04-10T00:33:23.599Z,0.00
2019-04-10T00:34:23.594Z,0.00
2019-04-10T00:35:23.672Z,0.00
2019-04-10T00:36:24.689Z,0.00
2019-04-10T00:37:27.148Z,0.00
2019-04-10T00:38:24.088Z,0.00
2019-04-10T00:39:23.549Z,0.00
2019-04-10T00:40:23.694Z,0.00
2019-04-10T00:41:23.987Z,0.00
2019-04-10T00:42:23.532Z,0.00
2019-04-10T00:43:24.514Z,0.00
2019-04-10T00:44:23.809Z,0.00
2019-04-10T00:45:23.496Z,0.00
2019-04-10T00:46:24.292Z,0.00
2019-04-10T00:47:23.480Z,0.00
2019-04-10T00:48:23.964Z,0.00
2019-04-10T00:49:23.966Z,0.00
2019-04-10T00:50:23.472Z,0.00
2019-04-10T00:51:23.565Z,0.00
2019-04-10T00:52:24.064Z,0.00
2019-04-10T00:53:23.430Z,0.00
2019-04-10T00:54:23.706Z,0.00
2019-04-10T00:55:23.769Z,0.00
2019-04-10T00:56:24.285Z,0.00
2019-04-10T00:57:23.630Z,0.00
2019-04-10T00:58:23.386Z,0.00
2019-04-10T00:59:24.142Z,0.00
2019-04-10T01:00:23.666Z,0.00
2019-04-10T01:01:23.644Z,0.00
2019-04-10T01:02:23.355Z,0.00
2019-04-10T01:03:23.627Z,0.00
2019-04-10T01:04:24.449Z,0.00
2019-04-10T01:05:23.325Z,0.00
2019-04-10T01:06:24.088Z,0.00
2019-04-10T01:07:33.759Z,0.00
2019-04-10T01:08:23.306Z,0.00
2019-04-10T01:09:23.646Z,0.00
2019-04-10T01:10:23.286Z,0.00
2019-04-10T01:11:23.276Z,0.00
2019-04-10T01:12:23.661Z,0.00
2019-04-10T01:13:23.263Z,0.00
2019-04-10T01:14:23.453Z,0.00
2019-04-10T01:15:23.248Z,0.00
2019-04-10T01:16:23.250Z,0.00
2019-04-10T01:17:24.060Z,0.00
2019-04-10T01:18:23.433Z,0.00
2019-04-10T01:19:23.842Z,0.00
2019-04-10T01:20:23.810Z,0.00
2019-04-10T01:21:23.212Z,0.00
2019-04-10T01:22:24.040Z,0.00
2019-04-10T01:23:23.180Z,0.00
2019-04-10T01:24:23.755Z,0.00
2019-04-10T01:25:24.133Z,0.00
2019-04-10T01:26:23.400Z,0.00
2019-04-10T01:27:23.639Z,0.00
2019-04-10T01:28:23.128Z,0.00
2019-04-10T01:29:23.120Z,0.00
2019-04-10T01:30:24.292Z,0.00
2019-04-10T01:31:23.304Z,0.00
2019-04-10T01:32:23.776Z,0.00
2019-04-10T01:33:23.095Z,0.00
2019-04-10T01:34:23.316Z,0.00
2019-04-10T01:35:23.074Z,0.00
2019-04-10T01:36:23.062Z,0.00
2019-04-10T01:37:23.051Z,0.00
2019-04-10T01:38:23.039Z,0.00
2019-04-10T01:39:23.032Z,0.00
2019-04-10T01:40:23.372Z,0.00
2019-04-10T01:41:23.795Z,0.00
2019-04-10T01:42:23.005Z,0.00
2019-04-10T01:43:22.997Z,0.00
2019-04-10T01:44:22.993Z,0.00
2019-04-10T01:45:22.982Z,0.00
2019-04-10T01:46:22.977Z,0.00
2019-04-10T01:47:23.434Z,0.00
2019-04-10T01:48:23.827Z,0.00
2019-04-10T01:49:23.847Z,0.00
2019-04-10T01:50:22.939Z,0.00
2019-04-10T01:51:23.410Z,0.00
2019-04-10T01:52:22.924Z,0.00
2019-04-10T01:53:23.800Z,0.00
2019-04-10T01:54:22.904Z,0.00
2019-04-10T01:55:25.814Z,0.00
2019-04-10T01:56:31.147Z,0.00
2019-04-10T01:57:22.875Z,0.00
2019-04-10T01:58:23.203Z,0.00
2019-04-10T01:59:23.598Z,0.00
2019-04-10T02:00:23.698Z,0.00
2019-04-10T02:01:22.837Z,0.00
2019-04-10T02:02:23.184Z,0.00
2019-04-10T02:03:22.833Z,0.00
2019-04-10T02:04:22.887Z,0.00
2019-04-10T02:05:22.941Z,0.00
2019-04-10T02:06:22.800Z,0.00
2019-04-10T02:07:23.127Z,0.00
2019-04-10T02:08:23.639Z,0.00
2019-04-10T02:09:23.444Z,0.00
2019-04-10T02:10:23.778Z,0.00
2019-04-10T02:11:23.875Z,0.00
2019-04-10T02:12:22.885Z,0.00
2019-04-10T02:13:23.364Z,0.00
2019-04-10T02:14:22.722Z,0.00
2019-04-10T02:15:22.816Z,0.00
2019-04-10T02:16:22.910Z,0.00
2019-04-10T02:17:22.701Z,0.00
2019-04-10T02:18:23.486Z,0.00
2019-04-10T02:19:22.685Z,0.00
2019-04-10T02:20:22.980Z,0.00
2019-04-10T02:21:23.435Z,0.00
2019-04-10T02:22:22.656Z,0.00
2019-04-10T02:23:22.659Z,0.00
2019-04-10T02:24:22.966Z,0.00
2019-04-10T02:25:22.625Z,0.00
2019-04-10T02:26:22.618Z,0.00
2019-04-10T02:27:22.607Z,0.00
2019-04-10T02:28:22.785Z,0.00
2019-04-10T02:29:22.598Z,0.00
2019-04-10T02:30:24.032Z,0.00
2019-04-10T02:31:24.121Z,0.00
2019-04-10T02:32:24.111Z,0.00
2019-04-10T02:33:23.225Z,0.00
2019-04-10T02:34:23.236Z,0.00
2019-04-10T02:35:24.484Z,0.00
2019-04-10T02:36:23.531Z,0.00
2019-04-10T02:37:22.994Z,0.00
2019-04-10T02:38:38.683Z,0.00
2019-04-10T02:39:29.822Z,0.00
2019-04-10T02:40:23.570Z,0.00
2019-04-10T02:41:22.495Z,0.00
2019-04-10T02:42:22.662Z,0.00
2019-04-10T02:43:23.308Z,0.00
2019-04-10T02:44:23.033Z,0.00
2019-04-10T02:45:23.786Z,0.00
2019-04-10T02:46:22.442Z,0.00
2019-04-10T02:47:23.040Z,0.00
2019-04-10T02:48:23.464Z,0.00
2019-04-10T02:49:22.618Z,0.00
2019-04-10T02:50:22.632Z,0.00
2019-04-10T02:51:23.611Z,0.00
2019-04-10T02:52:22.768Z,0.00
2019-04-10T02:53:23.342Z,0.00
2019-04-10T02:54:22.365Z,0.00
2019-04-10T02:55:22.925Z,0.00
2019-04-10T02:56:23.733Z,0.00
2019-04-10T02:57:22.335Z,0.00
2019-04-10T02:58:22.364Z,0.00
2019-04-10T02:59:23.354Z,0.00
2019-04-10T03:00:22.906Z,0.00
2019-04-10T03:01:23.475Z,0.00
2019-04-10T03:02:22.286Z,0.00
2019-04-10T03:03:22.472Z,0.00
2019-04-10T03:04:22.271Z,0.00
2019-04-10T03:05:24.859Z,0.00
2019-04-10T03:06:22.858Z,0.00
2019-04-10T03:07:23.873Z,0.00
2019-04-10T03:08:38.230Z,0.00
2019-04-10T03:09:37.014Z,0.00
2019-04-10T03:10:31.618Z,0.00
2019-04-10T03:11:23.759Z,0.00
2019-04-10T03:12:23.672Z,0.00
2019-04-10T03:13:23.793Z,0.00
2019-04-10T03:14:22.175Z,0.00
2019-04-10T03:15:23.204Z,0.00
2019-04-10T03:16:22.154Z,0.00
2019-04-10T03:17:22.142Z,0.00
2019-04-10T03:18:22.981Z,0.00
2019-04-10T03:19:22.319Z,0.00
2019-04-10T03:20:22.454Z,0.00
2019-04-10T03:21:22.832Z,0.00
2019-04-10T03:22:22.875Z,0.00
2019-04-10T03:23:23.007Z,0.00
2019-04-10T03:24:23.174Z,0.00
2019-04-10T03:25:22.068Z,0.00
2019-04-10T03:26:22.068Z,0.00
2019-04-10T03:27:22.626Z,0.00
2019-04-10T03:28:22.963Z,0.00
2019-04-10T03:29:22.041Z,0.00
2019-04-10T03:30:23.380Z,0.00
2019-04-10T03:31:23.005Z,0.00
2019-04-10T03:32:23.642Z,0.00
2019-04-10T03:33:26.724Z,0.00
2019-04-10T03:34:22.922Z,0.00
2019-04-10T03:35:22.820Z,0.00
2019-04-10T03:36:21.964Z,0.00
2019-04-10T03:37:22.339Z,0.00
2019-04-10T03:38:21.947Z,0.00
2019-04-10T03:39:21.936Z,0.00
2019-04-10T03:40:21.925Z,0.00
2019-04-10T03:41:22.013Z,0.00
2019-04-10T03:42:21.903Z,0.00
2019-04-10T03:43:21.893Z,0.00
2019-04-10T03:44:22.854Z,0.00
2019-04-10T03:45:22.393Z,0.00
2019-04-10T03:46:21.866Z,0.00
2019-04-10T03:47:22.911Z,0.00
2019-04-10T03:48:22.973Z,0.00
2019-04-10T03:49:22.139Z,0.00
2019-04-10T03:50:21.827Z,0.00
2019-04-10T03:51:22.814Z,0.00
2019-04-10T03:52:21.803Z,0.00
2019-04-10T03:53:22.152Z,0.00
2019-04-10T03:54:22.812Z,0.00
2019-04-10T03:55:22.936Z,0.00
2019-04-10T03:56:21.774Z,0.00
2019-04-10T03:57:22.644Z,0.00
2019-04-10T03:58:21.751Z,0.00
2019-04-10T03:59:22.389Z,0.00
2019-04-10T04:00:22.448Z,0.00
2019-04-10T04:01:22.891Z,0.00
2019-04-10T04:02:21.899Z,0.00
2019-04-10T04:03:21.693Z,0.00
2019-04-10T04:04:21.720Z,0.00
2019-04-10T04:05:22.423Z,0.00
2019-04-10T04:06:21.783Z,0.00
2019-04-10T04:07:24.281Z,0.00
2019-04-10T04:08:21.674Z,0.00
2019-04-10T04:09:21.756Z,0.00
2019-04-10T04:10:21.628Z,0.00
2019-04-10T04:11:21.846Z,0.00
2019-04-10T04:12:22.337Z,0.00
2019-04-10T04:13:21.731Z,0.00
2019-04-10T04:14:22.058Z,4.00
2019-04-10T04:15:21.954Z,4.00
2019-04-10T04:16:22.615Z,0.00
2019-04-10T04:17:22.205Z,0.00
2019-04-10T04:18:21.546Z,4.00
2019-04-10T04:19:22.054Z,0.00
2019-04-10T04:20:21.521Z,4.00
2019-04-10T04:21:21.712Z,4.00
2019-04-10T04:22:21.504Z,4.00
2019-04-10T04:23:21.622Z,4.00
2019-04-10T04:24:23.598Z,4.00
2019-04-10T04:25:21.906Z,8.00
2019-04-10T04:26:21.461Z,12.00
2019-04-10T04:27:21.680Z,12.00
2019-04-10T04:28:21.453Z,12.00
2019-04-10T04:29:22.587Z,16.00
2019-04-10T04:30:22.261Z,16.00
2019-04-10T04:31:21.413Z,20.00
2019-04-10T04:32:21.756Z,24.00
2019-04-10T04:33:21.386Z,28.00
2019-04-10T04:34:21.380Z,36.00
2019-04-10T04:35:22.249Z,40.00
2019-04-10T04:36:21.409Z,48.00
2019-04-10T04:37:21.354Z,52.00
2019-04-10T04:38:21.338Z,60.00
2019-04-10T04:39:26.391Z,68.00
2019-04-10T04:40:21.724Z,76.00
2019-04-10T04:41:21.312Z,88.00
2019-04-10T04:42:22.293Z,100.00
2019-04-10T04:43:21.948Z,112.00
2019-04-10T04:44:22.209Z,128.00
2019-04-10T04:45:21.574Z,144.00
2019-04-10T04:46:21.252Z,160.00
2019-04-10T04:47:22.275Z,176.00
2019-04-10T04:48:21.958Z,196.00
2019-04-10T04:49:21.225Z,216.00
2019-04-10T04:50:21.218Z,240.00
2019-04-10T04:51:21.961Z,264.00
2019-04-10T04:52:21.194Z,284.00
2019-04-10T04:53:21.183Z,312.00
2019-04-10T04:54:21.366Z,340.00
2019-04-10T04:55:21.841Z,368.00
2019-04-10T04:56:21.986Z,400.00
2019-04-10T04:57:21.139Z,436.00
2019-04-10T04:58:22.211Z,472.00
2019-04-10T04:59:21.118Z,508.00
2019-04-10T05:00:21.530Z,548.00
2019-04-10T05:01:21.129Z,588.00
2019-04-10T05:02:21.948Z,632.00
2019-04-10T05:03:21.087Z,680.00
2019-04-10T05:04:21.064Z,724.00
2019-04-10T05:05:21.054Z,776.00
2019-04-10T05:06:22.179Z,828.00
2019-04-10T05:07:21.042Z,884.00
2019-04-10T05:08:21.811Z,940.00
2019-04-10T05:09:29.769Z,992.00
2019-04-10T05:10:21.005Z,1052.00
2019-04-10T05:11:20.995Z,1116.00
2019-04-10T05:12:20.991Z,1176.00
2019-04-10T05:13:21.950Z,1236.00
2019-04-10T05:14:21.686Z,1300.00
2019-04-10T05:15:20.954Z,1364.00
2019-04-10T05:16:20.942Z,1432.00
2019-04-10T05:17:22.069Z,1496.00
2019-04-10T05:18:21.238Z,1564.00
2019-04-10T05:19:21.131Z,1636.00
2019-04-10T05:20:20.903Z,1720.00
2019-04-10T05:21:21.314Z,1824.00
2019-04-10T05:22:20.889Z,2012.00
2019-04-10T05:23:20.873Z,2216.00
2019-04-10T05:24:21.927Z,2544.00
2019-04-10T05:25:21.090Z,3016.00
2019-04-10T05:26:20.877Z,3436.00
2019-04-10T05:27:20.836Z,3756.00
2019-04-10T05:28:20.818Z,4136.00
2019-04-10T05:29:21.654Z,4396.00
2019-04-10T05:30:20.801Z,4624.00
2019-04-10T05:31:21.471Z,4844.00
2019-04-10T05:32:21.493Z,5108.00
2019-04-10T05:33:20.769Z,5388.00
2019-04-10T05:34:21.891Z,5672.00
2019-04-10T05:35:20.751Z,5952.00
2019-04-10T05:36:21.590Z,6204.00
2019-04-10T05:37:21.277Z,6444.00
2019-04-10T05:38:20.884Z,6696.00
2019-04-10T05:39:20.706Z,6964.00
2019-04-10T05:40:20.737Z,7264.00
2019-04-10T05:41:21.706Z,7492.00
2019-04-10T05:42:20.716Z,7744.00
2019-04-10T05:43:20.677Z,8048.00
2019-04-10T05:44:20.668Z,8340.00
2019-04-10T05:45:21.237Z,8648.00
2019-04-10T05:46:21.599Z,8856.00
2019-04-10T05:47:21.434Z,9108.00
2019-04-10T05:48:22.438Z,9440.00
2019-04-10T05:49:20.762Z,9784.00
2019-04-10T05:50:21.561Z,10112.00
2019-04-10T05:51:21.304Z,10484.00
2019-04-10T05:52:20.606Z,10776.00
2019-04-10T05:53:20.600Z,11092.00
2019-04-10T05:54:20.590Z,11424.00
2019-04-10T05:55:20.583Z,11668.00
2019-04-10T05:56:20.742Z,12032.00
2019-04-10T05:57:20.567Z,12256.00
2019-04-10T05:58:21.632Z,12480.00
2019-04-10T05:59:21.726Z,12800.00
2019-04-10T06:00:20.865Z,13088.00
2019-04-10T06:01:31.425Z,13280.00
2019-04-10T06:02:20.535Z,13536.00
2019-04-10T06:03:20.741Z,13632.00
2019-04-10T06:04:21.026Z,13088.00
2019-04-10T06:05:20.522Z,13216.00
2019-04-10T06:06:20.541Z,14080.00
2019-04-10T06:07:21.126Z,14624.00
2019-04-10T06:08:21.509Z,15232.00
2019-04-10T06:09:20.628Z,15584.00
2019-04-10T06:10:21.593Z,15904.00
2019-04-10T06:11:20.628Z,16128.00
2019-04-10T06:12:20.507Z,16288.00
2019-04-10T06:13:20.480Z,16448.00
2019-04-10T06:14:20.469Z,16736.00
2019-04-10T06:15:21.103Z,17024.00
2019-04-10T06:16:20.552Z,17376.00
2019-04-10T06:17:20.684Z,17440.00
2019-04-10T06:18:20.781Z,17696.00
2019-04-10T06:19:20.453Z,18016.00
2019-04-10T06:20:20.938Z,18304.00
2019-04-10T06:21:21.041Z,18624.00
2019-04-10T06:22:20.798Z,18784.00
2019-04-10T06:23:20.436Z,19072.00
2019-04-10T06:24:20.487Z,19360.00
2019-04-10T06:25:23.585Z,19488.00
2019-04-10T06:26:21.751Z,19776.00
2019-04-10T06:27:20.582Z,19968.00
2019-04-10T06:28:21.322Z,20320.00
2019-04-10T06:29:21.117Z,20288.00
2019-04-10T06:30:20.583Z,20672.00
2019-04-10T06:31:20.728Z,20736.00
2019-04-10T06:32:21.327Z,20928.00
2019-04-10T06:33:20.400Z,21152.00
2019-04-10T06:34:20.580Z,21408.00
2019-04-10T06:35:20.401Z,21344.00
2019-04-10T06:36:21.470Z,21600.00
2019-04-10T06:37:20.401Z,21792.00
2019-04-10T06:38:21.009Z,22112.00
2019-04-10T06:39:20.560Z,22464.00
2019-04-10T06:40:23.838Z,22624.00
2019-04-10T06:41:20.385Z,22816.00
2019-04-10T06:42:20.469Z,22944.00
2019-04-10T06:43:20.992Z,23136.00
2019-04-10T06:44:21.658Z,23360.00
2019-04-10T06:45:20.379Z,23584.00
2019-04-10T06:46:20.375Z,23872.00
2019-04-10T06:47:20.381Z,24032.00
2019-04-10T06:48:20.377Z,24064.00
2019-04-10T06:49:20.663Z,24160.00
2019-04-10T06:50:21.079Z,24448.00
2019-04-10T06:51:21.602Z,24640.00
2019-04-10T06:52:20.700Z,24640.00
2019-04-10T06:53:20.581Z,24800.00
2019-04-10T06:54:20.560Z,24768.00
2019-04-10T06:55:21.529Z,25024.00
2019-04-10T06:56:20.881Z,25024.00
2019-04-10T06:57:20.830Z,25440.00
2019-04-10T06:58:20.366Z,25504.00
2019-04-10T06:59:21.240Z,25600.00
2019-04-10T07:00:21.388Z,25696.00
2019-04-10T07:01:21.495Z,26240.00
2019-04-10T07:02:27.089Z,26496.00
2019-04-10T07:03:21.135Z,26624.00
2019-04-10T07:04:23.843Z,26336.00
2019-04-10T07:05:20.364Z,26624.00
2019-04-10T07:06:22.334Z,26848.00
2019-04-10T07:07:23.789Z,27232.00
2019-04-10T07:08:23.672Z,14468.00
2019-04-10T07:09:21.361Z,14688.00
2019-04-10T07:10:28.609Z,14848.00
2019-04-10T07:11:22.108Z,14880.00
2019-04-10T07:12:22.441Z,15008.00
2019-04-10T07:13:20.361Z,15040.00
2019-04-10T07:14:20.522Z,15232.00
2019-04-10T07:15:23.652Z,15392.00
2019-04-10T07:16:20.366Z,15424.00
2019-04-10T07:17:20.360Z,15616.00
2019-04-10T07:18:21.756Z,15872.00
2019-04-10T07:19:20.356Z,15936.00
2019-04-10T07:20:21.265Z,16032.00
2019-04-10T07:21:20.361Z,16064.00
2019-04-10T07:22:20.748Z,16256.00
2019-04-10T07:23:26.787Z,16384.00
2019-04-10T07:24:20.808Z,16512.00
2019-04-10T07:25:20.366Z,16704.00
2019-04-10T07:26:30.969Z,16832.00
2019-04-10T07:27:21.734Z,16992.00
2019-04-10T07:28:21.452Z,17120.00
2019-04-10T07:29:26.183Z,17344.00
2019-04-10T07:30:24.153Z,17824.00
2019-04-10T07:31:21.380Z,18464.00
2019-04-10T07:32:21.507Z,18816.00
2019-04-10T07:33:21.075Z,19104.00
2019-04-10T07:34:22.028Z,19392.00
2019-04-10T07:35:21.878Z,19392.00
2019-04-10T07:36:20.419Z,20640.00
2019-04-10T07:37:23.773Z,22208.00
2019-04-10T07:38:21.361Z,23456.00
2019-04-10T07:39:21.416Z,23968.00
2019-04-10T07:40:20.645Z,24512.00
2019-04-10T07:41:24.027Z,25248.00
2019-04-10T07:42:30.358Z,26368.00
2019-04-10T07:43:24.499Z,26976.00
2019-04-10T07:44:20.391Z,27424.00
2019-04-10T07:45:20.392Z,28000.00
2019-04-10T07:46:20.398Z,28800.00
2019-04-10T07:47:21.016Z,29664.00
2019-04-10T07:48:20.545Z,30336.00
2019-04-10T07:49:21.175Z,30944.00
2019-04-10T07:50:20.609Z,31424.00
2019-04-10T07:51:21.131Z,32256.00
2019-04-10T07:52:22.307Z,32576.00
2019-04-10T07:53:20.420Z,32192.00
2019-04-10T07:54:21.301Z,31648.00
2019-04-10T07:55:21.101Z,30592.00
2019-04-10T07:56:20.919Z,30784.00
2019-04-10T07:57:20.424Z,31104.00
2019-04-10T07:58:21.437Z,31808.00
2019-04-10T07:59:20.609Z,34656.00
2019-04-10T08:00:20.438Z,39520.00
2019-04-10T08:01:20.443Z,44352.00
2019-04-10T08:02:21.169Z,47776.00
2019-04-10T08:03:20.850Z,51840.00
2019-04-10T08:04:20.583Z,51040.00
2019-04-10T08:05:20.961Z,49152.00
2019-04-10T08:06:20.460Z,49056.00
2019-04-10T08:07:29.453Z,50176.00
2019-04-10T08:08:21.434Z,51232.00
2019-04-10T08:09:20.960Z,53312.00
2019-04-10T08:10:20.475Z,56864.00
2019-04-10T08:11:20.476Z,61152.00
2019-04-10T08:12:21.182Z,64192.00
2019-04-10T08:13:20.490Z,64992.00
2019-04-10T08:14:21.680Z,68672.00
2019-04-10T08:15:20.987Z,72064.00
2019-04-10T08:16:21.068Z,69984.00
2019-04-10T08:17:20.504Z,71776.00
2019-04-10T08:18:21.122Z,74528.00
2019-04-10T08:19:20.753Z,78080.00
2019-04-10T08:20:20.525Z,84640.00
2019-04-10T08:21:20.529Z,85152.00
2019-04-10T08:22:20.530Z,82528.00
2019-04-10T08:23:21.742Z,79488.00
2019-04-10T08:24:20.545Z,77728.00
2019-04-10T08:25:20.603Z,81280.00
2019-04-10T08:26:21.381Z,76832.00
2019-04-10T08:27:21.352Z,67392.00
2019-04-10T08:28:20.559Z,61696.00
2019-04-10T08:29:21.737Z,58912.00
2019-04-10T08:30:20.573Z,55616.00
2019-04-10T08:31:22.217Z,52352.00
2019-04-10T08:32:21.597Z,48256.00
2019-04-10T08:33:21.730Z,43168.00
2019-04-10T08:34:21.578Z,42208.00
2019-04-10T08:35:20.948Z,41088.00
2019-04-10T08:36:21.547Z,38656.00
2019-04-10T08:37:20.757Z,37888.00
2019-04-10T08:38:21.719Z,37792.00
2019-04-10T08:39:32.056Z,36992.00
2019-04-10T08:40:21.147Z,37280.00
2019-04-10T08:41:21.299Z,36992.00
2019-04-10T08:42:20.644Z,36352.00
2019-04-10T08:43:20.653Z,34912.00
2019-04-10T08:44:20.676Z,34464.00
2019-04-10T08:45:21.058Z,34688.00
2019-04-10T08:46:21.814Z,34816.00
2019-04-10T08:47:20.685Z,34944.00
2019-04-10T08:48:21.881Z,34912.00
2019-04-10T08:49:21.391Z,35552.00
2019-04-10T08:50:21.751Z,36288.00
2019-04-10T08:51:21.442Z,36064.00
2019-04-10T08:52:20.717Z,36256.00
2019-04-10T08:53:20.721Z,36960.00
2019-04-10T08:54:20.726Z,37920.00
2019-04-10T08:55:21.819Z,39904.00
2019-04-10T08:56:20.745Z,40800.00
2019-04-10T08:57:21.488Z,41568.00
2019-04-10T08:58:20.907Z,41152.00
2019-04-10T08:59:21.414Z,39488.00
2019-04-10T09:00:20.769Z,38560.00
2019-04-10T09:01:20.948Z,38400.00
2019-04-10T09:02:20.787Z,38656.00
2019-04-10T09:03:20.791Z,38912.00
2019-04-10T09:04:20.809Z,39168.00
2019-04-10T09:05:21.694Z,40032.00
2019-04-10T09:06:20.816Z,41184.00
2019-04-10T09:07:20.842Z,41632.00
2019-04-10T09:08:21.113Z,41760.00
2019-04-10T09:09:21.534Z,41120.00
2019-04-10T09:10:20.848Z,40576.00
2019-04-10T09:11:26.216Z,39232.00
2019-04-10T09:12:21.903Z,38176.00
2019-04-10T09:13:20.883Z,39008.00
2019-04-10T09:14:21.157Z,40704.00
2019-04-10T09:15:21.433Z,41664.00
2019-04-10T09:16:20.897Z,42400.00
2019-04-10T09:17:20.906Z,41440.00
2019-04-10T09:18:21.108Z,39456.00
2019-04-10T09:19:20.924Z,39904.00
2019-04-10T09:20:20.930Z,40576.00
2019-04-10T09:21:21.615Z,41024.00
2019-04-10T09:22:20.945Z,42432.00
2019-04-10T09:23:30.774Z,43456.00
2019-04-10T09:24:21.644Z,43520.00
2019-04-10T09:25:20.974Z,43456.00
2019-04-10T09:26:20.980Z,43136.00
2019-04-10T09:27:21.317Z,43072.00
2019-04-10T09:28:21.006Z,42592.00
2019-04-10T09:29:23.035Z,40896.00
2019-04-10T09:30:21.026Z,41472.00
2019-04-10T09:31:21.773Z,42912.00
2019-04-10T09:32:22.195Z,44736.00
2019-04-10T09:33:24.298Z,45728.00
2019-04-10T09:34:21.061Z,45632.00
2019-04-10T09:35:21.072Z,45120.00
2019-04-10T09:36:21.488Z,44896.00
2019-04-10T09:37:22.054Z,44448.00
2019-04-10T09:38:21.108Z,43456.00
2019-04-10T09:39:21.278Z,43360.00
2019-04-10T09:40:22.354Z,43872.00
2019-04-10T09:41:21.613Z,43104.00
2019-04-10T09:42:21.561Z,39936.00
2019-04-10T09:43:21.157Z,37504.00
2019-04-10T09:44:21.163Z,38336.00
2019-04-10T09:45:22.001Z,39168.00
2019-04-10T09:46:21.376Z,39360.00
2019-04-10T09:47:21.194Z,38240.00
2019-04-10T09:48:22.206Z,37664.00
2019-04-10T09:49:31.832Z,38688.00
2019-04-10T09:50:21.421Z,38720.00
2019-04-10T09:51:21.503Z,38848.00
2019-04-10T09:52:21.745Z,39328.00
2019-04-10T09:53:21.251Z,38048.00
2019-04-10T09:54:21.794Z,34656.00
2019-04-10T09:55:22.239Z,30624.00
2019-04-10T09:56:21.415Z,28416.00
2019-04-10T09:57:22.399Z,28288.00
2019-04-10T09:58:21.883Z,27840.00
2019-04-10T09:59:31.239Z,27648.00
2019-04-10T10:00:21.425Z,27808.00
2019-04-10T10:01:22.064Z,28192.00
2019-04-10T10:02:21.341Z,27648.00
2019-04-10T10:03:21.351Z,28512.00
2019-04-10T10:04:21.599Z,28608.00
2019-04-10T10:05:22.342Z,28928.00
2019-04-10T10:06:27.057Z,29280.00
2019-04-10T10:07:21.387Z,29792.00
2019-04-10T10:08:22.546Z,29952.00
2019-04-10T10:09:21.719Z,30976.00
2019-04-10T10:10:22.618Z,30944.00
2019-04-10T10:11:22.204Z,30528.00
2019-04-10T10:12:21.440Z,31328.00
2019-04-10T10:13:21.464Z,30880.00
2019-04-10T10:14:21.463Z,30240.00
2019-04-10T10:15:21.474Z,30528.00
2019-04-10T10:16:21.494Z,30112.00
2019-04-10T10:17:22.424Z,30208.00
2019-04-10T10:18:21.494Z,30432.00
2019-04-10T10:19:21.838Z,30784.00
2019-04-10T10:20:21.792Z,30688.00
2019-04-10T10:21:21.529Z,31264.00
2019-04-10T10:22:21.538Z,31296.00
2019-04-10T10:23:22.030Z,31232.00
2019-04-10T10:24:22.454Z,31104.00
2019-04-10T10:25:21.653Z,31264.00
2019-04-10T10:26:21.836Z,31232.00
2019-04-10T10:27:22.159Z,31072.00
2019-04-10T10:28:22.792Z,30976.00
2019-04-10T10:29:21.833Z,30976.00
2019-04-10T10:30:21.607Z,30784.00
2019-04-10T10:31:22.171Z,31232.00
2019-04-10T10:32:21.625Z,31360.00
2019-04-10T10:33:21.690Z,31168.00
2019-04-10T10:34:22.593Z,31136.00
2019-04-10T10:35:21.644Z,30880.00
2019-04-10T10:36:22.188Z,30304.00
2019-04-10T10:37:22.159Z,30560.00
2019-04-10T10:38:21.660Z,30208.00
2019-04-10T10:39:21.669Z,30048.00
2019-04-10T10:40:21.680Z,30112.00
2019-04-10T10:41:22.236Z,30016.00
2019-04-10T10:42:21.697Z,30368.00
2019-04-10T10:43:22.554Z,30144.00
2019-04-10T10:44:21.947Z,30400.00
2019-04-10T10:45:22.778Z,30272.00
2019-04-10T10:46:21.726Z,30016.00
2019-04-10T10:47:22.261Z,29824.00
2019-04-10T10:48:21.940Z,29728.00
2019-04-10T10:49:21.744Z,29344.00
2019-04-10T10:50:22.244Z,29504.00
2019-04-10T10:51:22.579Z,29280.00
2019-04-10T10:52:21.768Z,29152.00
2019-04-10T10:53:21.999Z,29248.00
2019-04-10T10:54:23.021Z,28864.00
2019-04-10T10:55:21.790Z,28672.00
2019-04-10T10:56:22.382Z,28832.00
2019-04-10T10:57:22.763Z,28896.00
2019-04-10T10:58:21.898Z,28736.00
2019-04-10T10:59:21.879Z,28864.00
2019-04-10T11:00:22.999Z,29152.00
2019-04-10T11:01:22.110Z,28960.00
2019-04-10T11:02:21.828Z,28608.00
2019-04-10T11:03:22.454Z,28352.00
2019-04-10T11:04:21.848Z,28512.00
2019-04-10T11:05:21.853Z,28000.00
2019-04-10T11:06:22.676Z,28128.00
2019-04-10T11:07:22.744Z,27872.00
2019-04-10T11:08:22.065Z,28096.00
2019-04-10T11:09:22.052Z,27680.00
2019-04-10T11:10:24.087Z,28000.00
2019-04-10T11:11:22.604Z,28096.00
2019-04-10T11:12:22.037Z,28672.00
2019-04-10T11:13:22.539Z,28480.00
2019-04-10T11:14:21.914Z,28704.00
2019-04-10T11:15:21.925Z,28832.00
2019-04-10T11:16:23.199Z,28992.00
2019-04-10T11:17:22.236Z,28640.00
2019-04-10T11:18:22.218Z,28832.00
2019-04-10T11:19:21.947Z,29344.00
2019-04-10T11:20:21.952Z,28896.00
2019-04-10T11:21:22.845Z,29152.00
2019-04-10T11:22:24.000Z,28704.00
2019-04-10T11:23:22.233Z,28480.00
2019-04-10T11:24:22.831Z,27328.00
2019-04-10T11:25:22.191Z,20768.00
2019-04-10T11:26:24.088Z,11392.00
2019-04-10T11:27:22.917Z,8528.00
2019-04-10T11:28:24.012Z,8236.00
2019-04-10T11:29:22.186Z,7992.00
2019-04-10T11:30:22.496Z,7876.00
2019-04-10T11:31:23.803Z,7820.00
2019-04-10T11:32:22.183Z,7848.00
2019-04-10T11:33:22.369Z,7864.00
2019-04-10T11:34:22.623Z,7836.00
2019-04-10T11:35:24.140Z,7840.00
2019-04-10T11:36:22.040Z,7736.00
2019-04-10T11:37:31.756Z,7724.00
2019-04-10T11:38:22.049Z,7760.00
2019-04-10T11:39:26.101Z,7744.00
2019-04-10T11:40:23.534Z,7728.00
2019-04-10T11:41:23.401Z,7592.00
2019-04-10T11:42:22.633Z,7404.00
2019-04-10T11:43:24.392Z,7364.00
2019-04-10T11:44:22.057Z,7400.00
2019-04-10T11:45:23.015Z,7416.00
2019-04-10T11:46:22.715Z,7420.00
2019-04-10T11:47:23.621Z,7404.00
2019-04-10T11:48:22.979Z,7476.00
2019-04-10T11:49:23.053Z,7388.00
2019-04-10T11:50:24.701Z,7376.00
2019-04-10T11:51:23.522Z,7264.00
2019-04-10T11:52:32.177Z,7276.00
2019-04-10T11:53:23.855Z,7292.00
2019-04-10T11:54:26.587Z,7304.00
2019-04-10T11:55:27.039Z,7220.00
2019-04-10T11:56:23.617Z,7128.00
2019-04-10T11:57:22.870Z,7232.00
2019-04-10T11:58:24.375Z,7192.00
2019-04-10T11:59:24.182Z,7244.00
2019-04-10T12:00:23.690Z,7216.00
2019-04-10T12:01:24.556Z,7036.00
2019-04-10T12:02:25.020Z,6852.00
2019-04-10T12:03:22.668Z,6784.00
2019-04-10T12:04:23.253Z,6872.00
2019-04-10T12:05:22.629Z,6984.00
2019-04-10T12:06:25.016Z,7060.00
2019-04-10T12:07:53.181Z,6948.00
2019-04-10T12:08:45.274Z,7016.00
2019-04-10T12:10:06.497Z,7012.00
2019-04-10T12:11:23.045Z,7220.00
2019-04-10T12:12:22.025Z,7052.00
2019-04-10T12:13:22.076Z,6748.00
2019-04-10T12:14:22.010Z,6676.00
2019-04-10T12:15:22.005Z,6764.00
2019-04-10T12:16:23.060Z,6688.00
2019-04-10T12:17:22.175Z,6736.00
2019-04-10T12:18:22.561Z,6736.00
2019-04-10T12:19:24.069Z,6780.00
2019-04-10T12:20:21.997Z,6880.00
2019-04-10T12:21:21.992Z,6696.00
2019-04-10T12:22:21.991Z,6540.00